sensor_id;sensor_type;location;lat;lon;timestamp;P1;durP1;ratioP1;P2;durP2;ratioP2
4756;SDS011;2392;52.578;13.426;2023-02-28T00:00:50;4.53;;;3.47;;
4756;SDS011;2392;52.578;13.426;2023-02-28T00:03:18;7.70;;;4.43;;
4756;SDS011;2392;52.578;13.426;2023-02-28T00:05:45;23.17;;;4.07;;
4756;SDS011;2392;52.578;13.426;2023-02-28T00:08:14;7.63;;;4.70;;
4756;SDS011;2392;52.578;13.426;2023-02-28T00:10:41;6.10;;;4.00;;
4756;SDS011;2392;52.578;13.426;2023-02-28T00:13:08;16.20;;;4.60;;
4756;SDS011;2392;52.578;13.426;2023-02-28T00:15:36;7.93;;;3.50;;
4756;SDS011;2392;52.578;13.426;2023-02-28T00:18:03;6.67;;;3.53;;
4756;SDS011;2392;52.578;13.426;2023-02-28T00:20:31;4.70;;;3.53;;
4756;SDS011;2392;52.578;13.426;2023-02-28T00:22:58;8.80;;;3.53;;
4756;SDS011;2392;52.578;13.426;2023-02-28T00:25:27;5.00;;;4.07;;
4756;SDS011;2392;52.578;13.426;2023-02-28T00:27:55;3.47;;;3.17;;
4756;SDS011;2392;52.578;13.426;2023-02-28T00:30:25;4.10;;;2.90;;
4756;SDS011;2392;52.578;13.426;2023-02-28T00:32:52;4.73;;;3.57;;
4756;SDS011;2392;52.578;13.426;2023-02-28T00:35:20;10.17;;;4.37;;
4756;SDS011;2392;52.578;13.426;2023-02-28T00:37:47;5.23;;;4.30;;
4756;SDS011;2392;52.578;13.426;2023-02-28T00:40:15;8.10;;;4.37;;
4756;SDS011;2392;52.578;13.426;2023-02-28T00:42:44;6.37;;;4.53;;
4756;SDS011;2392;52.578;13.426;2023-02-28T00:45:11;10.20;;;5.20;;
4756;SDS011;2392;52.578;13.426;2023-02-28T00:47:38;5.23;;;4.00;;
4756;SDS011;2392;52.578;13.426;2023-02-28T00:50:06;9.77;;;5.67;;
4756;SDS011;2392;52.578;13.426;2023-02-28T00:52:35;8.87;;;5.13;;
4756;SDS011;2392;52.578;13.426;2023-02-28T00:55:02;9.93;;;5.40;;
4756;SDS011;2392;52.578;13.426;2023-02-28T00:57:30;9.60;;;5.03;;
4756;SDS011;2392;52.578;13.426;2023-02-28T00:59:58;8.87;;;4.20;;
4756;SDS011;2392;52.578;13.426;2023-02-28T01:02:26;7.20;;;4.23;;
4756;SDS011;2392;52.578;13.426;2023-02-28T01:04:53;7.00;;;4.47;;
4756;SDS011;2392;52.578;13.426;2023-02-28T01:07:21;8.13;;;4.63;;
4756;SDS011;2392;52.578;13.426;2023-02-28T01:09:49;6.43;;;4.50;;
4756;SDS011;2392;52.578;13.426;2023-02-28T01:12:16;8.60;;;4.80;;
4756;SDS011;2392;52.578;13.426;2023-02-28T01:14:45;7.37;;;3.67;;
4756;SDS011;2392;52.578;13.426;2023-02-28T01:17:14;5.50;;;3.57;;
4756;SDS011;2392;52.578;13.426;2023-02-28T01:19:41;6.63;;;3.17;;
4756;SDS011;2392;52.578;13.426;2023-02-28T01:22:08;8.23;;;3.67;;
4756;SDS011;2392;52.578;13.426;2023-02-28T01:24:36;5.60;;;3.30;;
4756;SDS011;2392;52.578;13.426;2023-02-28T01:27:03;4.30;;;3.00;;
4756;SDS011;2392;52.578;13.426;2023-02-28T01:29:30;6.90;;;2.80;;
4756;SDS011;2392;52.578;13.426;2023-02-28T01:31:57;7.10;;;3.10;;
4756;SDS011;2392;52.578;13.426;2023-02-28T01:34:26;4.87;;;2.80;;
4756;SDS011;2392;52.578;13.426;2023-02-28T01:36:53;5.33;;;3.83;;
4756;SDS011;2392;52.578;13.426;2023-02-28T01:39:20;5.57;;;3.10;;
4756;SDS011;2392;52.578;13.426;2023-02-28T01:41:49;4.33;;;3.27;;
4756;SDS011;2392;52.578;13.426;2023-02-28T01:47:23;4.63;;;3.00;;
4756;SDS011;2392;52.578;13.426;2023-02-28T01:49:57;7.10;;;4.10;;
4756;SDS011;2392;52.578;13.426;2023-02-28T01:52:24;6.53;;;3.13;;
4756;SDS011;2392;52.578;13.426;2023-02-28T01:54:54;3.90;;;2.93;;
4756;SDS011;2392;52.578;13.426;2023-02-28T01:57:25;2.63;;;2.43;;
4756;SDS011;2392;52.578;13.426;2023-02-28T02:00:03;4.43;;;3.07;;
4756;SDS011;2392;52.578;13.426;2023-02-28T02:02:45;3.20;;;2.77;;
4756;SDS011;2392;52.578;13.426;2023-02-28T02:05:18;2.70;;;2.40;;
4756;SDS011;2392;52.578;13.426;2023-02-28T02:07:47;5.47;;;3.67;;
4756;SDS011;2392;52.578;13.426;2023-02-28T02:10:16;6.13;;;2.83;;
4756;SDS011;2392;52.578;13.426;2023-02-28T02:12:50;4.60;;;3.80;;
4756;SDS011;2392;52.578;13.426;2023-02-28T02:15:39;3.77;;;3.20;;
4756;SDS011;2392;52.578;13.426;2023-02-28T02:18:13;9.60;;;3.90;;
4756;SDS011;2392;52.578;13.426;2023-02-28T02:24:04;7.53;;;4.37;;
4756;SDS011;2392;52.578;13.426;2023-02-28T02:27:20;6.37;;;3.40;;
4756;SDS011;2392;52.578;13.426;2023-02-28T02:33:04;6.73;;;3.10;;
4756;SDS011;2392;52.578;13.426;2023-02-28T02:35:46;4.43;;;3.23;;
4756;SDS011;2392;52.578;13.426;2023-02-28T02:38:18;4.00;;;3.47;;
4756;SDS011;2392;52.578;13.426;2023-02-28T02:40:56;7.70;;;2.80;;
4756;SDS011;2392;52.578;13.426;2023-02-28T02:43:31;5.50;;;3.63;;
4756;SDS011;2392;52.578;13.426;2023-02-28T02:46:03;5.20;;;3.10;;
4756;SDS011;2392;52.578;13.426;2023-02-28T02:48:34;3.23;;;2.80;;
4756;SDS011;2392;52.578;13.426;2023-02-28T02:51:07;4.13;;;3.60;;
4756;SDS011;2392;52.578;13.426;2023-02-28T02:53:42;4.83;;;3.73;;
4756;SDS011;2392;52.578;13.426;2023-02-28T02:56:15;3.87;;;3.50;;
4756;SDS011;2392;52.578;13.426;2023-02-28T02:58:45;4.97;;;3.00;;
4756;SDS011;2392;52.578;13.426;2023-02-28T03:01:16;7.20;;;5.17;;
4756;SDS011;2392;52.578;13.426;2023-02-28T03:03:54;4.47;;;3.67;;
4756;SDS011;2392;52.578;13.426;2023-02-28T03:06:24;5.57;;;3.90;;
4756;SDS011;2392;52.578;13.426;2023-02-28T03:08:52;4.87;;;4.37;;
4756;SDS011;2392;52.578;13.426;2023-02-28T03:11:21;5.67;;;4.30;;
4756;SDS011;2392;52.578;13.426;2023-02-28T03:13:54;5.43;;;3.77;;
4756;SDS011;2392;52.578;13.426;2023-02-28T03:16:52;6.13;;;4.03;;
4756;SDS011;2392;52.578;13.426;2023-02-28T03:25:27;6.50;;;3.70;;
4756;SDS011;2392;52.578;13.426;2023-02-28T03:28:00;4.60;;;3.33;;
4756;SDS011;2392;52.578;13.426;2023-02-28T03:30:34;4.70;;;3.83;;
4756;SDS011;2392;52.578;13.426;2023-02-28T03:33:08;5.23;;;3.80;;
4756;SDS011;2392;52.578;13.426;2023-02-28T03:35:42;4.17;;;3.43;;
4756;SDS011;2392;52.578;13.426;2023-02-28T03:38:14;6.20;;;3.70;;
4756;SDS011;2392;52.578;13.426;2023-02-28T03:40:46;4.60;;;3.53;;
4756;SDS011;2392;52.578;13.426;2023-02-28T03:43:18;4.10;;;3.30;;
4756;SDS011;2392;52.578;13.426;2023-02-28T03:45:49;11.07;;;4.20;;
4756;SDS011;2392;52.578;13.426;2023-02-28T03:48:19;4.70;;;3.73;;
4756;SDS011;2392;52.578;13.426;2023-02-28T03:50:51;6.73;;;3.80;;
4756;SDS011;2392;52.578;13.426;2023-02-28T03:53:24;4.60;;;3.50;;
4756;SDS011;2392;52.578;13.426;2023-02-28T03:55:54;6.90;;;3.67;;
4756;SDS011;2392;52.578;13.426;2023-02-28T03:58:26;8.57;;;4.23;;
4756;SDS011;2392;52.578;13.426;2023-02-28T04:00:57;6.70;;;4.17;;
4756;SDS011;2392;52.578;13.426;2023-02-28T04:03:34;7.43;;;3.63;;
4756;SDS011;2392;52.578;13.426;2023-02-28T04:06:03;7.73;;;3.73;;
4756;SDS011;2392;52.578;13.426;2023-02-28T04:08:33;6.40;;;3.83;;
4756;SDS011;2392;52.578;13.426;2023-02-28T04:11:01;4.63;;;3.63;;
4756;SDS011;2392;52.578;13.426;2023-02-28T04:13:31;7.00;;;3.47;;
4756;SDS011;2392;52.578;13.426;2023-02-28T04:15:59;4.93;;;3.53;;
4756;SDS011;2392;52.578;13.426;2023-02-28T04:18:26;4.07;;;3.23;;
4756;SDS011;2392;52.578;13.426;2023-02-28T04:20:53;6.17;;;3.50;;
4756;SDS011;2392;52.578;13.426;2023-02-28T04:23:20;5.60;;;3.20;;
4756;SDS011;2392;52.578;13.426;2023-02-28T04:25:48;5.77;;;3.83;;
4756;SDS011;2392;52.578;13.426;2023-02-28T04:28:16;8.27;;;3.13;;
4756;SDS011;2392;52.578;13.426;2023-02-28T04:30:43;5.60;;;4.03;;
4756;SDS011;2392;52.578;13.426;2023-02-28T04:33:10;9.20;;;6.10;;
4756;SDS011;2392;52.578;13.426;2023-02-28T04:35:37;5.63;;;4.27;;
4756;SDS011;2392;52.578;13.426;2023-02-28T04:38:04;7.57;;;4.67;;
4756;SDS011;2392;52.578;13.426;2023-02-28T04:40:31;8.30;;;4.37;;
4756;SDS011;2392;52.578;13.426;2023-02-28T04:42:59;8.00;;;5.13;;
4756;SDS011;2392;52.578;13.426;2023-02-28T04:45:26;9.10;;;5.93;;
4756;SDS011;2392;52.578;13.426;2023-02-28T04:47:55;9.07;;;6.80;;
4756;SDS011;2392;52.578;13.426;2023-02-28T04:50:22;8.43;;;5.07;;
4756;SDS011;2392;52.578;13.426;2023-02-28T04:52:49;12.03;;;5.33;;
4756;SDS011;2392;52.578;13.426;2023-02-28T04:55:16;8.90;;;5.20;;
4756;SDS011;2392;52.578;13.426;2023-02-28T04:57:43;7.77;;;4.80;;
4756;SDS011;2392;52.578;13.426;2023-02-28T05:00:12;8.27;;;5.97;;
4756;SDS011;2392;52.578;13.426;2023-02-28T05:02:41;5.57;;;4.67;;
4756;SDS011;2392;52.578;13.426;2023-02-28T05:05:09;6.87;;;5.67;;
4756;SDS011;2392;52.578;13.426;2023-02-28T05:07:37;10.97;;;6.27;;
4756;SDS011;2392;52.578;13.426;2023-02-28T05:10:04;9.20;;;5.63;;
4756;SDS011;2392;52.578;13.426;2023-02-28T05:12:31;15.43;;;7.07;;
4756;SDS011;2392;52.578;13.426;2023-02-28T05:14:58;15.40;;;5.40;;
4756;SDS011;2392;52.578;13.426;2023-02-28T05:17:28;9.53;;;5.73;;
4756;SDS011;2392;52.578;13.426;2023-02-28T05:19:55;6.47;;;5.03;;
4756;SDS011;2392;52.578;13.426;2023-02-28T05:22:22;7.63;;;5.43;;
4756;SDS011;2392;52.578;13.426;2023-02-28T05:24:49;6.33;;;4.80;;
4756;SDS011;2392;52.578;13.426;2023-02-28T05:27:16;7.77;;;4.70;;
4756;SDS011;2392;52.578;13.426;2023-02-28T05:29:43;8.53;;;4.50;;
4756;SDS011;2392;52.578;13.426;2023-02-28T05:32:10;8.53;;;4.97;;
4756;SDS011;2392;52.578;13.426;2023-02-28T05:34:39;6.67;;;4.40;;
4756;SDS011;2392;52.578;13.426;2023-02-28T05:37:08;5.07;;;4.37;;
4756;SDS011;2392;52.578;13.426;2023-02-28T05:39:39;7.97;;;5.20;;
4756;SDS011;2392;52.578;13.426;2023-02-28T05:42:06;6.70;;;4.47;;
4756;SDS011;2392;52.578;13.426;2023-02-28T05:44:34;8.73;;;4.77;;
4756;SDS011;2392;52.578;13.426;2023-02-28T05:47:01;7.63;;;4.20;;
4756;SDS011;2392;52.578;13.426;2023-02-28T05:49:29;7.83;;;4.30;;
4756;SDS011;2392;52.578;13.426;2023-02-28T05:51:57;7.43;;;4.77;;
4756;SDS011;2392;52.578;13.426;2023-02-28T05:54:24;5.93;;;3.57;;
4756;SDS011;2392;52.578;13.426;2023-02-28T05:56:51;6.33;;;3.90;;
4756;SDS011;2392;52.578;13.426;2023-02-28T05:59:18;7.30;;;4.60;;
4756;SDS011;2392;52.578;13.426;2023-02-28T06:01:45;7.23;;;5.17;;
4756;SDS011;2392;52.578;13.426;2023-02-28T06:04:14;9.97;;;4.30;;
4756;SDS011;2392;52.578;13.426;2023-02-28T06:06:44;5.00;;;4.50;;
4756;SDS011;2392;52.578;13.426;2023-02-28T06:09:12;6.60;;;4.70;;
4756;SDS011;2392;52.578;13.426;2023-02-28T06:11:40;6.10;;;5.50;;
4756;SDS011;2392;52.578;13.426;2023-02-28T06:14:07;6.23;;;4.87;;
4756;SDS011;2392;52.578;13.426;2023-02-28T06:16:39;7.17;;;5.20;;
4756;SDS011;2392;52.578;13.426;2023-02-28T06:19:06;5.27;;;4.00;;
4756;SDS011;2392;52.578;13.426;2023-02-28T06:21:33;8.47;;;5.00;;
4756;SDS011;2392;52.578;13.426;2023-02-28T06:24:00;7.53;;;5.20;;
4756;SDS011;2392;52.578;13.426;2023-02-28T06:26:29;6.67;;;4.60;;
4756;SDS011;2392;52.578;13.426;2023-02-28T06:28:56;7.73;;;5.30;;
4756;SDS011;2392;52.578;13.426;2023-02-28T06:31:23;9.30;;;5.30;;
4756;SDS011;2392;52.578;13.426;2023-02-28T06:33:51;8.10;;;5.50;;
4756;SDS011;2392;52.578;13.426;2023-02-28T06:36:18;7.40;;;4.77;;
4756;SDS011;2392;52.578;13.426;2023-02-28T06:38:45;7.50;;;4.97;;
4756;SDS011;2392;52.578;13.426;2023-02-28T06:41:16;9.27;;;5.93;;
4756;SDS011;2392;52.578;13.426;2023-02-28T06:43:44;7.83;;;5.43;;
4756;SDS011;2392;52.578;13.426;2023-02-28T06:46:12;7.67;;;6.20;;
4756;SDS011;2392;52.578;13.426;2023-02-28T06:48:40;9.33;;;6.53;;
4756;SDS011;2392;52.578;13.426;2023-02-28T06:51:08;13.63;;;7.27;;
4756;SDS011;2392;52.578;13.426;2023-02-28T06:53:37;9.10;;;6.17;;
4756;SDS011;2392;52.578;13.426;2023-02-28T06:56:04;9.23;;;6.00;;
4756;SDS011;2392;52.578;13.426;2023-02-28T06:58:32;7.90;;;6.07;;
4756;SDS011;2392;52.578;13.426;2023-02-28T07:01:01;8.93;;;6.40;;
4756;SDS011;2392;52.578;13.426;2023-02-28T07:03:28;7.50;;;5.57;;
4756;SDS011;2392;52.578;13.426;2023-02-28T07:05:55;10.23;;;6.00;;
4756;SDS011;2392;52.578;13.426;2023-02-28T07:08:22;11.00;;;6.97;;
4756;SDS011;2392;52.578;13.426;2023-02-28T07:10:51;15.93;;;7.23;;
4756;SDS011;2392;52.578;13.426;2023-02-28T07:13:19;11.10;;;6.77;;
4756;SDS011;2392;52.578;13.426;2023-02-28T07:15:52;9.77;;;5.87;;
4756;SDS011;2392;52.578;13.426;2023-02-28T07:18:21;8.50;;;6.07;;
4756;SDS011;2392;52.578;13.426;2023-02-28T07:20:48;10.70;;;6.80;;
4756;SDS011;2392;52.578;13.426;2023-02-28T07:23:16;13.13;;;6.37;;
4756;SDS011;2392;52.578;13.426;2023-02-28T07:25:43;11.57;;;6.77;;
4756;SDS011;2392;52.578;13.426;2023-02-28T07:28:10;15.83;;;7.60;;
4756;SDS011;2392;52.578;13.426;2023-02-28T07:30:38;9.97;;;6.47;;
4756;SDS011;2392;52.578;13.426;2023-02-28T07:33:05;12.70;;;7.47;;
4756;SDS011;2392;52.578;13.426;2023-02-28T07:35:34;13.90;;;8.10;;
4756;SDS011;2392;52.578;13.426;2023-02-28T07:38:01;10.13;;;7.20;;
4756;SDS011;2392;52.578;13.426;2023-02-28T07:40:29;11.70;;;6.50;;
4756;SDS011;2392;52.578;13.426;2023-02-28T07:42:56;11.53;;;7.13;;
4756;SDS011;2392;52.578;13.426;2023-02-28T07:45:24;11.13;;;7.07;;
4756;SDS011;2392;52.578;13.426;2023-02-28T07:47:53;13.67;;;6.73;;
4756;SDS011;2392;52.578;13.426;2023-02-28T07:50:21;9.00;;;6.23;;
4756;SDS011;2392;52.578;13.426;2023-02-28T07:52:50;11.80;;;7.00;;
4756;SDS011;2392;52.578;13.426;2023-02-28T07:55:17;11.20;;;7.00;;
4756;SDS011;2392;52.578;13.426;2023-02-28T07:57:44;9.67;;;6.70;;
4756;SDS011;2392;52.578;13.426;2023-02-28T08:00:11;12.13;;;7.53;;
4756;SDS011;2392;52.578;13.426;2023-02-28T08:02:39;13.47;;;6.67;;
4756;SDS011;2392;52.578;13.426;2023-02-28T08:05:07;8.80;;;6.47;;
4756;SDS011;2392;52.578;13.426;2023-02-28T08:07:34;8.63;;;6.83;;
4756;SDS011;2392;52.578;13.426;2023-02-28T08:10:02;12.50;;;7.10;;
4756;SDS011;2392;52.578;13.426;2023-02-28T08:12:31;10.07;;;6.37;;
4756;SDS011;2392;52.578;13.426;2023-02-28T08:14:58;12.00;;;6.10;;
4756;SDS011;2392;52.578;13.426;2023-02-28T08:17:25;10.60;;;6.77;;
4756;SDS011;2392;52.578;13.426;2023-02-28T08:19:52;9.77;;;6.60;;
4756;SDS011;2392;52.578;13.426;2023-02-28T08:22:19;7.03;;;5.13;;
4756;SDS011;2392;52.578;13.426;2023-02-28T08:24:46;6.90;;;5.30;;
4756;SDS011;2392;52.578;13.426;2023-02-28T08:27:15;7.43;;;4.20;;
4756;SDS011;2392;52.578;13.426;2023-02-28T08:29:42;6.57;;;3.97;;
4756;SDS011;2392;52.578;13.426;2023-02-28T08:32:09;5.43;;;3.80;;
4756;SDS011;2392;52.578;13.426;2023-02-28T08:34:38;6.37;;;4.23;;
4756;SDS011;2392;52.578;13.426;2023-02-28T08:37:05;6.63;;;3.57;;
4756;SDS011;2392;52.578;13.426;2023-02-28T08:39:33;5.03;;;3.30;;
4756;SDS011;2392;52.578;13.426;2023-02-28T08:42:01;4.37;;;2.83;;
4756;SDS011;2392;52.578;13.426;2023-02-28T08:44:29;3.30;;;2.87;;
4756;SDS011;2392;52.578;13.426;2023-02-28T08:46:56;3.30;;;2.77;;
4756;SDS011;2392;52.578;13.426;2023-02-28T08:49:24;4.13;;;3.20;;
4756;SDS011;2392;52.578;13.426;2023-02-28T08:51:51;2.30;;;2.20;;
4756;SDS011;2392;52.578;13.426;2023-02-28T08:54:18;7.77;;;2.67;;
4756;SDS011;2392;52.578;13.426;2023-02-28T08:56:44;2.83;;;2.53;;
4756;SDS011;2392;52.578;13.426;2023-02-28T08:59:12;3.93;;;2.97;;
4756;SDS011;2392;52.578;13.426;2023-02-28T09:01:41;2.50;;;2.20;;
4756;SDS011;2392;52.578;13.426;2023-02-28T09:04:08;3.83;;;2.47;;
4756;SDS011;2392;52.578;13.426;2023-02-28T09:06:36;2.50;;;2.30;;
4756;SDS011;2392;52.578;13.426;2023-02-28T09:09:04;2.83;;;2.60;;
4756;SDS011;2392;52.578;13.426;2023-02-28T09:11:32;2.43;;;2.10;;
4756;SDS011;2392;52.578;13.426;2023-02-28T09:14:00;2.63;;;2.43;;
4756;SDS011;2392;52.578;13.426;2023-02-28T09:16:28;3.97;;;1.93;;
4756;SDS011;2392;52.578;13.426;2023-02-28T09:18:58;3.00;;;2.10;;
4756;SDS011;2392;52.578;13.426;2023-02-28T09:21:25;1.50;;;1.40;;
4756;SDS011;2392;52.578;13.426;2023-02-28T09:23:53;3.63;;;2.17;;
4756;SDS011;2392;52.578;13.426;2023-02-28T09:26:21;1.57;;;1.47;;
4756;SDS011;2392;52.578;13.426;2023-02-28T09:28:50;1.93;;;1.30;;
4756;SDS011;2392;52.578;13.426;2023-02-28T09:31:18;1.87;;;1.70;;
4756;SDS011;2392;52.578;13.426;2023-02-28T09:33:47;6.70;;;2.40;;
4756;SDS011;2392;52.578;13.426;2023-02-28T09:36:16;3.10;;;2.00;;
4756;SDS011;2392;52.578;13.426;2023-02-28T09:38:43;1.70;;;1.60;;
4756;SDS011;2392;52.578;13.426;2023-02-28T09:41:12;2.00;;;1.90;;
4756;SDS011;2392;52.578;13.426;2023-02-28T09:43:41;1.87;;;1.70;;
4756;SDS011;2392;52.578;13.426;2023-02-28T09:46:18;2.20;;;1.80;;
4756;SDS011;2392;52.578;13.426;2023-02-28T09:48:53;1.70;;;1.60;;
4756;SDS011;2392;52.578;13.426;2023-02-28T09:51:33;3.03;;;1.60;;
4756;SDS011;2392;52.578;13.426;2023-02-28T09:54:10;2.20;;;1.80;;
4756;SDS011;2392;52.578;13.426;2023-02-28T09:56:44;1.73;;;1.30;;
4756;SDS011;2392;52.578;13.426;2023-02-28T09:59:14;1.77;;;1.67;;
4756;SDS011;2392;52.578;13.426;2023-02-28T10:01:54;2.13;;;1.53;;
4756;SDS011;2392;52.578;13.426;2023-02-28T10:04:33;2.30;;;1.40;;
4756;SDS011;2392;52.578;13.426;2023-02-28T10:07:10;2.00;;;1.60;;
4756;SDS011;2392;52.578;13.426;2023-02-28T10:09:45;1.37;;;1.20;;
4756;SDS011;2392;52.578;13.426;2023-02-28T10:12:15;1.70;;;1.60;;
4756;SDS011;2392;52.578;13.426;2023-02-28T10:14:44;3.00;;;1.37;;
4756;SDS011;2392;52.578;13.426;2023-02-28T10:17:13;1.93;;;1.40;;
4756;SDS011;2392;52.578;13.426;2023-02-28T10:19:46;1.63;;;1.53;;
4756;SDS011;2392;52.578;13.426;2023-02-28T10:22:24;1.50;;;1.20;;
4756;SDS011;2392;52.578;13.426;2023-02-28T10:24:55;2.40;;;1.40;;
4756;SDS011;2392;52.578;13.426;2023-02-28T10:27:28;3.00;;;1.47;;
4756;SDS011;2392;52.578;13.426;2023-02-28T10:29:57;1.70;;;1.30;;
4756;SDS011;2392;52.578;13.426;2023-02-28T10:32:26;2.37;;;1.77;;
4756;SDS011;2392;52.578;13.426;2023-02-28T10:34:57;1.90;;;1.70;;
4756;SDS011;2392;52.578;13.426;2023-02-28T10:37:27;3.30;;;1.50;;
4756;SDS011;2392;52.578;13.426;2023-02-28T10:39:56;1.97;;;1.60;;
4756;SDS011;2392;52.578;13.426;2023-02-28T10:42:24;1.70;;;1.60;;
4756;SDS011;2392;52.578;13.426;2023-02-28T10:47:40;2.93;;;2.00;;
4756;SDS011;2392;52.578;13.426;2023-02-28T10:50:33;4.50;;;2.37;;
4756;SDS011;2392;52.578;13.426;2023-02-28T10:53:13;2.50;;;2.07;;
4756;SDS011;2392;52.578;13.426;2023-02-28T10:55:56;3.20;;;1.90;;
4756;SDS011;2392;52.578;13.426;2023-02-28T10:58:25;2.00;;;1.90;;
4756;SDS011;2392;52.578;13.426;2023-02-28T11:00:54;2.03;;;1.53;;
4756;SDS011;2392;52.578;13.426;2023-02-28T11:03:29;2.63;;;1.90;;
4756;SDS011;2392;52.578;13.426;2023-02-28T11:05:58;1.80;;;1.70;;
4756;SDS011;2392;52.578;13.426;2023-02-28T11:08:31;2.00;;;1.80;;
4756;SDS011;2392;52.578;13.426;2023-02-28T11:11:01;2.07;;;1.83;;
4756;SDS011;2392;52.578;13.426;2023-02-28T11:13:32;4.63;;;2.03;;
4756;SDS011;2392;52.578;13.426;2023-02-28T11:16:04;2.77;;;1.70;;
4756;SDS011;2392;52.578;13.426;2023-02-28T11:18:34;2.80;;;2.10;;
4756;SDS011;2392;52.578;13.426;2023-02-28T11:21:06;2.70;;;2.00;;
4756;SDS011;2392;52.578;13.426;2023-02-28T11:23:39;3.70;;;1.93;;
4756;SDS011;2392;52.578;13.426;2023-02-28T11:26:08;2.00;;;1.90;;
4756;SDS011;2392;52.578;13.426;2023-02-28T11:28:37;2.93;;;2.03;;
4756;SDS011;2392;52.578;13.426;2023-02-28T11:31:14;3.00;;;2.20;;
4756;SDS011;2392;52.578;13.426;2023-02-28T11:33:45;3.23;;;1.73;;
4756;SDS011;2392;52.578;13.426;2023-02-28T11:36:16;2.83;;;2.50;;
4756;SDS011;2392;52.578;13.426;2023-02-28T11:38:47;7.83;;;2.20;;
4756;SDS011;2392;52.578;13.426;2023-02-28T11:44:17;6.43;;;2.30;;
4756;SDS011;2392;52.578;13.426;2023-02-28T11:46:59;2.37;;;2.20;;
4756;SDS011;2392;52.578;13.426;2023-02-28T11:49:35;2.73;;;2.53;;
4756;SDS011;2392;52.578;13.426;2023-02-28T11:52:13;2.63;;;2.43;;
4756;SDS011;2392;52.578;13.426;2023-02-28T11:54:54;2.17;;;1.97;;
4756;SDS011;2392;52.578;13.426;2023-02-28T11:57:36;2.57;;;2.40;;
4756;SDS011;2392;52.578;13.426;2023-02-28T12:00:26;2.07;;;1.97;;
4756;SDS011;2392;52.578;13.426;2023-02-28T12:03:03;2.50;;;2.27;;
4756;SDS011;2392;52.578;13.426;2023-02-28T12:05:40;3.30;;;2.40;;
4756;SDS011;2392;52.578;13.426;2023-02-28T12:08:17;3.60;;;2.60;;
4756;SDS011;2392;52.578;13.426;2023-02-28T12:11:00;2.30;;;2.17;;
4756;SDS011;2392;52.578;13.426;2023-02-28T12:13:38;3.10;;;2.80;;
4756;SDS011;2392;52.578;13.426;2023-02-28T12:19:19;3.63;;;2.90;;
4756;SDS011;2392;52.578;13.426;2023-02-28T12:24:52;2.93;;;2.60;;
4756;SDS011;2392;52.578;13.426;2023-02-28T12:27:31;3.03;;;2.57;;
4756;SDS011;2392;52.578;13.426;2023-02-28T12:30:03;3.73;;;2.60;;
4756;SDS011;2392;52.578;13.426;2023-02-28T12:32:33;3.17;;;2.90;;
4756;SDS011;2392;52.578;13.426;2023-02-28T12:35:06;3.10;;;2.90;;
4756;SDS011;2392;52.578;13.426;2023-02-28T12:37:39;4.20;;;2.90;;
4756;SDS011;2392;52.578;13.426;2023-02-28T12:40:12;2.83;;;2.63;;
4756;SDS011;2392;52.578;13.426;2023-02-28T12:42:43;3.33;;;2.83;;
4756;SDS011;2392;52.578;13.426;2023-02-28T12:45:16;3.00;;;2.80;;
4756;SDS011;2392;52.578;13.426;2023-02-28T12:47:46;3.67;;;3.03;;
4756;SDS011;2392;52.578;13.426;2023-02-28T12:50:17;3.40;;;3.20;;
4756;SDS011;2392;52.578;13.426;2023-02-28T12:52:47;4.07;;;3.07;;
4756;SDS011;2392;52.578;13.426;2023-02-28T12:55:21;3.70;;;3.00;;
4756;SDS011;2392;52.578;13.426;2023-02-28T12:57:58;4.57;;;2.83;;
4756;SDS011;2392;52.578;13.426;2023-02-28T13:00:33;3.47;;;3.00;;
4756;SDS011;2392;52.578;13.426;2023-02-28T13:03:16;4.53;;;3.30;;
4756;SDS011;2392;52.578;13.426;2023-02-28T13:06:03;4.53;;;2.83;;
4756;SDS011;2392;52.578;13.426;2023-02-28T13:08:59;2.73;;;2.40;;
4756;SDS011;2392;52.578;13.426;2023-02-28T13:11:31;4.20;;;3.10;;
4756;SDS011;2392;52.578;13.426;2023-02-28T13:14:02;5.17;;;2.83;;
4756;SDS011;2392;52.578;13.426;2023-02-28T13:19:21;3.73;;;3.27;;
4756;SDS011;2392;52.578;13.426;2023-02-28T13:21:49;5.30;;;2.93;;
4756;SDS011;2392;52.578;13.426;2023-02-28T13:33:28;5.60;;;3.70;;
4756;SDS011;2392;52.578;13.426;2023-02-28T13:36:01;4.97;;;3.47;;
4756;SDS011;2392;52.578;13.426;2023-02-28T13:38:38;3.50;;;3.20;;
4756;SDS011;2392;52.578;13.426;2023-02-28T13:44:13;2.93;;;2.13;;
4756;SDS011;2392;52.578;13.426;2023-02-28T13:49:47;6.57;;;2.67;;
4756;SDS011;2392;52.578;13.426;2023-02-28T13:52:17;3.80;;;3.00;;
4756;SDS011;2392;52.578;13.426;2023-02-28T13:58:03;3.70;;;2.30;;
4756;SDS011;2392;52.578;13.426;2023-02-28T14:01:07;2.80;;;2.60;;
4756;SDS011;2392;52.578;13.426;2023-02-28T14:03:57;3.30;;;2.70;;
4756;SDS011;2392;52.578;13.426;2023-02-28T14:06:47;5.90;;;2.60;;
4756;SDS011;2392;52.578;13.426;2023-02-28T14:09:18;2.90;;;2.70;;
4756;SDS011;2392;52.578;13.426;2023-02-28T14:11:49;2.53;;;2.33;;
4756;SDS011;2392;52.578;13.426;2023-02-28T14:17:22;2.70;;;2.50;;
4756;SDS011;2392;52.578;13.426;2023-02-28T14:19:51;3.80;;;2.20;;
4756;SDS011;2392;52.578;13.426;2023-02-28T14:22:25;2.57;;;2.37;;
4756;SDS011;2392;52.578;13.426;2023-02-28T14:25:10;3.17;;;2.83;;
4756;SDS011;2392;52.578;13.426;2023-02-28T14:27:48;5.33;;;2.57;;
4756;SDS011;2392;52.578;13.426;2023-02-28T14:30:35;4.00;;;2.70;;
4756;SDS011;2392;52.578;13.426;2023-02-28T14:33:23;5.83;;;2.50;;
4756;SDS011;2392;52.578;13.426;2023-02-28T14:36:04;5.43;;;2.87;;
4756;SDS011;2392;52.578;13.426;2023-02-28T14:38:39;7.73;;;3.07;;
4756;SDS011;2392;52.578;13.426;2023-02-28T14:41:13;3.43;;;2.70;;
4756;SDS011;2392;52.578;13.426;2023-02-28T14:43:49;4.50;;;2.67;;
4756;SDS011;2392;52.578;13.426;2023-02-28T14:46:18;4.20;;;2.90;;
4756;SDS011;2392;52.578;13.426;2023-02-28T14:48:46;6.73;;;2.93;;
4756;SDS011;2392;52.578;13.426;2023-02-28T14:51:17;4.30;;;2.40;;
4756;SDS011;2392;52.578;13.426;2023-02-28T14:53:49;3.17;;;2.83;;
4756;SDS011;2392;52.578;13.426;2023-02-28T14:56:22;4.30;;;3.30;;
4756;SDS011;2392;52.578;13.426;2023-02-28T14:58:51;2.77;;;2.40;;
4756;SDS011;2392;52.578;13.426;2023-02-28T15:01:19;3.10;;;2.80;;
4756;SDS011;2392;52.578;13.426;2023-02-28T15:03:48;3.97;;;2.17;;
4756;SDS011;2392;52.578;13.426;2023-02-28T15:06:23;4.47;;;3.37;;
4756;SDS011;2392;52.578;13.426;2023-02-28T15:11:40;4.37;;;2.50;;
4756;SDS011;2392;52.578;13.426;2023-02-28T15:14:12;5.53;;;3.30;;
4756;SDS011;2392;52.578;13.426;2023-02-28T15:16:44;4.90;;;2.90;;
4756;SDS011;2392;52.578;13.426;2023-02-28T15:19:14;2.50;;;2.30;;
4756;SDS011;2392;52.578;13.426;2023-02-28T15:21:47;2.93;;;2.63;;
4756;SDS011;2392;52.578;13.426;2023-02-28T15:24:18;4.50;;;2.60;;
4756;SDS011;2392;52.578;13.426;2023-02-28T15:26:51;2.77;;;2.53;;
4756;SDS011;2392;52.578;13.426;2023-02-28T15:29:22;2.80;;;2.20;;
4756;SDS011;2392;52.578;13.426;2023-02-28T15:31:55;3.80;;;2.83;;
4756;SDS011;2392;52.578;13.426;2023-02-28T15:34:27;2.70;;;2.50;;
4756;SDS011;2392;52.578;13.426;2023-02-28T15:36:59;7.97;;;3.77;;
4756;SDS011;2392;52.578;13.426;2023-02-28T15:39:28;4.17;;;2.57;;
4756;SDS011;2392;52.578;13.426;2023-02-28T15:44:38;4.10;;;2.80;;
4756;SDS011;2392;52.578;13.426;2023-02-28T15:47:05;3.17;;;2.60;;
4756;SDS011;2392;52.578;13.426;2023-02-28T15:49:44;3.17;;;2.77;;
4756;SDS011;2392;52.578;13.426;2023-02-28T15:52:14;3.80;;;2.80;;
4756;SDS011;2392;52.578;13.426;2023-02-28T15:54:45;3.57;;;2.80;;
4756;SDS011;2392;52.578;13.426;2023-02-28T15:57:13;3.80;;;3.20;;
4756;SDS011;2392;52.578;13.426;2023-02-28T15:59:45;3.60;;;3.00;;
4756;SDS011;2392;52.578;13.426;2023-02-28T16:02:17;3.70;;;3.33;;
4756;SDS011;2392;52.578;13.426;2023-02-28T16:05:00;5.10;;;3.00;;
4756;SDS011;2392;52.578;13.426;2023-02-28T16:07:42;5.77;;;3.83;;
4756;SDS011;2392;52.578;13.426;2023-02-28T16:10:12;4.10;;;3.47;;
4756;SDS011;2392;52.578;13.426;2023-02-28T16:12:40;3.67;;;3.30;;
4756;SDS011;2392;52.578;13.426;2023-02-28T16:15:14;5.03;;;4.33;;
4756;SDS011;2392;52.578;13.426;2023-02-28T16:17:46;5.37;;;3.47;;
4756;SDS011;2392;52.578;13.426;2023-02-28T16:20:13;3.90;;;3.03;;